sensor_id;sensor_type;location;lat;lon;timestamp;P1;durP1;ratioP1;P2;durP2;ratioP2
61435;SDS011;47304;47.456;19.160;2023-06-14T00:00:55;8.50;;;4.30;;
61435;SDS011;47304;47.456;19.160;2023-06-14T00:03:21;8.20;;;4.10;;
61435;SDS011;47304;47.456;19.160;2023-06-14T00:05:48;8.00;;;3.80;;
61435;SDS011;47304;47.456;19.160;2023-06-14T00:08:15;8.60;;;4.30;;
61435;SDS011;47304;47.456;19.160;2023-06-14T00:10:41;9.90;;;4.00;;
61435;SDS011;47304;47.456;19.160;2023-06-14T00:13:08;11.70;;;4.40;;
61435;SDS011;47304;47.456;19.160;2023-06-14T00:15:35;8.50;;;4.00;;
61435;SDS011;47304;47.456;19.160;2023-06-14T00:18:02;8.20;;;4.00;;
61435;SDS011;47304;47.456;19.160;2023-06-14T00:20:30;8.60;;;4.30;;
61435;SDS011;47304;47.456;19.160;2023-06-14T00:22:59;10.50;;;3.90;;
61435;SDS011;47304;47.456;19.160;2023-06-14T00:25:26;9.70;;;4.50;;
61435;SDS011;47304;47.456;19.160;2023-06-14T00:27:55;8.70;;;4.20;;
61435;SDS011;47304;47.456;19.160;2023-06-14T00:30:23;10.80;;;4.10;;
61435;SDS011;47304;47.456;19.160;2023-06-14T00:32:50;9.60;;;4.10;;
61435;SDS011;47304;47.456;19.160;2023-06-14T00:35:17;8.70;;;4.30;;
61435;SDS011;47304;47.456;19.160;2023-06-14T00:37:44;9.70;;;4.00;;
61435;SDS011;47304;47.456;19.160;2023-06-14T00:40:10;10.30;;;4.60;;
61435;SDS011;47304;47.456;19.160;2023-06-14T00:42:37;8.20;;;4.40;;
61435;SDS011;47304;47.456;19.160;2023-06-14T00:45:04;8.70;;;4.20;;
61435;SDS011;47304;47.456;19.160;2023-06-14T00:47:31;9.00;;;4.10;;
61435;SDS011;47304;47.456;19.160;2023-06-14T00:49:57;9.90;;;4.60;;
61435;SDS011;47304;47.456;19.160;2023-06-14T00:52:25;9.90;;;4.20;;
61435;SDS011;47304;47.456;19.160;2023-06-14T00:54:52;9.50;;;4.60;;
61435;SDS011;47304;47.456;19.160;2023-06-14T00:57:18;8.70;;;4.70;;
61435;SDS011;47304;47.456;19.160;2023-06-14T00:59:46;9.90;;;5.00;;
61435;SDS011;47304;47.456;19.160;2023-06-14T01:02:14;9.80;;;5.10;;
61435;SDS011;47304;47.456;19.160;2023-06-14T01:04:41;9.00;;;4.90;;
61435;SDS011;47304;47.456;19.160;2023-06-14T01:13:21;9.40;;;4.70;;
61435;SDS011;47304;47.456;19.160;2023-06-14T01:15:54;11.20;;;5.20;;
61435;SDS011;47304;47.456;19.160;2023-06-14T01:18:22;11.70;;;5.40;;
61435;SDS011;47304;47.456;19.160;2023-06-14T01:20:48;10.30;;;5.20;;
61435;SDS011;47304;47.456;19.160;2023-06-14T01:23:16;11.50;;;5.70;;
61435;SDS011;47304;47.456;19.160;2023-06-14T01:25:46;11.70;;;5.50;;
61435;SDS011;47304;47.456;19.160;2023-06-14T01:28:15;13.20;;;5.80;;
61435;SDS011;47304;47.456;19.160;2023-06-14T01:30:42;11.10;;;5.60;;
61435;SDS011;47304;47.456;19.160;2023-06-14T01:33:12;10.90;;;5.40;;
61435;SDS011;47304;47.456;19.160;2023-06-14T01:35:45;12.10;;;5.70;;
61435;SDS011;47304;47.456;19.160;2023-06-14T01:38:14;12.00;;;5.70;;
61435;SDS011;47304;47.456;19.160;2023-06-14T01:40:42;14.80;;;6.40;;
61435;SDS011;47304;47.456;19.160;2023-06-14T01:43:10;13.10;;;6.00;;
61435;SDS011;47304;47.456;19.160;2023-06-14T01:45:40;11.70;;;6.30;;
61435;SDS011;47304;47.456;19.160;2023-06-14T01:48:08;15.00;;;7.10;;
61435;SDS011;47304;47.456;19.160;2023-06-14T01:50:35;12.60;;;6.40;;
61435;SDS011;47304;47.456;19.160;2023-06-14T01:53:01;15.10;;;6.70;;
61435;SDS011;47304;47.456;19.160;2023-06-14T01:55:28;12.30;;;6.40;;
61435;SDS011;47304;47.456;19.160;2023-06-14T01:57:55;12.60;;;6.90;;
61435;SDS011;47304;47.456;19.160;2023-06-14T02:00:21;13.00;;;7.20;;
61435;SDS011;47304;47.456;19.160;2023-06-14T02:02:48;14.10;;;6.60;;
61435;SDS011;47304;47.456;19.160;2023-06-14T02:05:14;11.90;;;6.20;;
61435;SDS011;47304;47.456;19.160;2023-06-14T02:07:41;16.90;;;6.70;;
61435;SDS011;47304;47.456;19.160;2023-06-14T02:10:07;12.10;;;6.30;;
61435;SDS011;47304;47.456;19.160;2023-06-14T02:12:34;12.70;;;6.10;;
61435;SDS011;47304;47.456;19.160;2023-06-14T02:15:01;12.40;;;6.30;;
61435;SDS011;47304;47.456;19.160;2023-06-14T02:17:27;12.60;;;6.20;;
61435;SDS011;47304;47.456;19.160;2023-06-14T02:19:54;13.40;;;6.30;;
61435;SDS011;47304;47.456;19.160;2023-06-14T02:22:20;12.90;;;6.90;;
61435;SDS011;47304;47.456;19.160;2023-06-14T02:24:47;13.10;;;6.60;;
61435;SDS011;47304;47.456;19.160;2023-06-14T02:27:18;12.90;;;6.60;;
61435;SDS011;47304;47.456;19.160;2023-06-14T02:29:44;12.70;;;6.60;;
61435;SDS011;47304;47.456;19.160;2023-06-14T02:32:11;13.20;;;6.80;;
61435;SDS011;47304;47.456;19.160;2023-06-14T02:34:37;12.70;;;6.60;;
61435;SDS011;47304;47.456;19.160;2023-06-14T02:37:04;13.90;;;6.20;;
61435;SDS011;47304;47.456;19.160;2023-06-14T02:39:30;12.00;;;6.60;;
61435;SDS011;47304;47.456;19.160;2023-06-14T02:41:57;12.00;;;6.30;;
61435;SDS011;47304;47.456;19.160;2023-06-14T02:44:24;12.90;;;6.90;;
61435;SDS011;47304;47.456;19.160;2023-06-14T02:46:51;13.30;;;7.00;;
61435;SDS011;47304;47.456;19.160;2023-06-14T02:49:18;13.10;;;6.80;;
61435;SDS011;47304;47.456;19.160;2023-06-14T02:51:44;12.70;;;6.40;;
61435;SDS011;47304;47.456;19.160;2023-06-14T02:54:11;15.90;;;7.50;;
61435;SDS011;47304;47.456;19.160;2023-06-14T02:56:37;14.10;;;7.90;;
61435;SDS011;47304;47.456;19.160;2023-06-14T02:59:04;14.30;;;6.90;;
61435;SDS011;47304;47.456;19.160;2023-06-14T03:01:30;13.50;;;7.20;;
61435;SDS011;47304;47.456;19.160;2023-06-14T03:03:57;15.90;;;6.90;;
61435;SDS011;47304;47.456;19.160;2023-06-14T03:06:24;16.90;;;7.30;;
61435;SDS011;47304;47.456;19.160;2023-06-14T03:08:50;16.20;;;7.40;;
61435;SDS011;47304;47.456;19.160;2023-06-14T03:11:17;13.10;;;7.10;;
61435;SDS011;47304;47.456;19.160;2023-06-14T03:13:43;13.60;;;6.80;;
61435;SDS011;47304;47.456;19.160;2023-06-14T03:16:10;13.00;;;7.00;;
61435;SDS011;47304;47.456;19.160;2023-06-14T03:18:36;12.70;;;6.80;;
61435;SDS011;47304;47.456;19.160;2023-06-14T03:21:03;14.30;;;6.80;;
61435;SDS011;47304;47.456;19.160;2023-06-14T03:23:30;14.20;;;7.60;;
61435;SDS011;47304;47.456;19.160;2023-06-14T03:25:56;14.40;;;7.00;;
61435;SDS011;47304;47.456;19.160;2023-06-14T03:28:23;14.50;;;7.40;;
61435;SDS011;47304;47.456;19.160;2023-06-14T03:30:50;15.90;;;7.10;;
61435;SDS011;47304;47.456;19.160;2023-06-14T03:33:16;14.40;;;8.00;;
61435;SDS011;47304;47.456;19.160;2023-06-14T03:35:43;15.60;;;7.80;;
61435;SDS011;47304;47.456;19.160;2023-06-14T03:38:10;13.50;;;7.30;;
61435;SDS011;47304;47.456;19.160;2023-06-14T03:40:36;13.90;;;7.60;;
61435;SDS011;47304;47.456;19.160;2023-06-14T03:43:03;12.10;;;6.20;;
61435;SDS011;47304;47.456;19.160;2023-06-14T03:45:29;15.20;;;7.80;;
61435;SDS011;47304;47.456;19.160;2023-06-14T03:47:56;14.10;;;7.70;;
61435;SDS011;47304;47.456;19.160;2023-06-14T03:50:23;15.00;;;7.30;;
61435;SDS011;47304;47.456;19.160;2023-06-14T03:52:49;13.90;;;7.10;;
61435;SDS011;47304;47.456;19.160;2023-06-14T03:55:16;13.40;;;7.20;;
61435;SDS011;47304;47.456;19.160;2023-06-14T03:57:45;13.50;;;7.40;;
61435;SDS011;47304;47.456;19.160;2023-06-14T04:00:12;17.10;;;7.70;;
61435;SDS011;47304;47.456;19.160;2023-06-14T04:02:39;14.30;;;7.50;;
61435;SDS011;47304;47.456;19.160;2023-06-14T04:05:06;14.60;;;7.30;;
61435;SDS011;47304;47.456;19.160;2023-06-14T04:07:33;12.50;;;6.80;;
61435;SDS011;47304;47.456;19.160;2023-06-14T04:09:59;14.70;;;7.60;;
61435;SDS011;47304;47.456;19.160;2023-06-14T04:12:26;13.10;;;6.30;;
61435;SDS011;47304;47.456;19.160;2023-06-14T04:14:52;13.10;;;7.20;;
61435;SDS011;47304;47.456;19.160;2023-06-14T04:17:20;13.10;;;6.70;;
61435;SDS011;47304;47.456;19.160;2023-06-14T04:19:46;14.20;;;7.40;;
61435;SDS011;47304;47.456;19.160;2023-06-14T04:22:13;14.20;;;7.40;;
61435;SDS011;47304;47.456;19.160;2023-06-14T04:24:39;13.60;;;6.90;;
61435;SDS011;47304;47.456;19.160;2023-06-14T04:27:06;13.30;;;7.60;;
61435;SDS011;47304;47.456;19.160;2023-06-14T04:29:32;15.60;;;7.50;;
61435;SDS011;47304;47.456;19.160;2023-06-14T04:31:59;16.40;;;8.00;;
61435;SDS011;47304;47.456;19.160;2023-06-14T04:34:26;13.00;;;6.70;;
61435;SDS011;47304;47.456;19.160;2023-06-14T04:36:52;12.40;;;7.00;;
61435;SDS011;47304;47.456;19.160;2023-06-14T04:39:19;14.40;;;7.10;;
61435;SDS011;47304;47.456;19.160;2023-06-14T04:41:46;16.90;;;7.90;;
61435;SDS011;47304;47.456;19.160;2023-06-14T04:44:13;14.10;;;6.90;;
61435;SDS011;47304;47.456;19.160;2023-06-14T04:46:40;16.40;;;8.70;;
61435;SDS011;47304;47.456;19.160;2023-06-14T04:49:06;13.50;;;7.60;;
61435;SDS011;47304;47.456;19.160;2023-06-14T04:51:33;13.30;;;7.00;;
61435;SDS011;47304;47.456;19.160;2023-06-14T04:54:00;14.60;;;6.80;;
61435;SDS011;47304;47.456;19.160;2023-06-14T04:56:26;15.50;;;7.30;;
61435;SDS011;47304;47.456;19.160;2023-06-14T04:58:53;14.10;;;7.40;;
61435;SDS011;47304;47.456;19.160;2023-06-14T05:01:20;13.00;;;6.70;;
61435;SDS011;47304;47.456;19.160;2023-06-14T05:03:46;14.20;;;7.60;;
61435;SDS011;47304;47.456;19.160;2023-06-14T05:06:13;13.70;;;6.90;;
61435;SDS011;47304;47.456;19.160;2023-06-14T05:08:40;15.40;;;7.20;;
61435;SDS011;47304;47.456;19.160;2023-06-14T05:11:06;13.80;;;7.30;;
61435;SDS011;47304;47.456;19.160;2023-06-14T05:13:33;12.80;;;7.20;;
61435;SDS011;47304;47.456;19.160;2023-06-14T05:16:00;14.00;;;7.80;;
61435;SDS011;47304;47.456;19.160;2023-06-14T05:18:26;13.70;;;7.40;;
61435;SDS011;47304;47.456;19.160;2023-06-14T05:20:53;13.70;;;7.00;;
61435;SDS011;47304;47.456;19.160;2023-06-14T05:23:19;13.90;;;7.30;;
61435;SDS011;47304;47.456;19.160;2023-06-14T05:25:46;13.10;;;7.20;;
61435;SDS011;47304;47.456;19.160;2023-06-14T05:28:13;13.40;;;7.10;;
61435;SDS011;47304;47.456;19.160;2023-06-14T05:30:40;12.70;;;6.50;;
61435;SDS011;47304;47.456;19.160;2023-06-14T05:33:06;11.40;;;6.30;;
61435;SDS011;47304;47.456;19.160;2023-06-14T05:35:33;12.10;;;6.80;;
61435;SDS011;47304;47.456;19.160;2023-06-14T05:38:00;12.90;;;6.80;;
61435;SDS011;47304;47.456;19.160;2023-06-14T05:40:27;11.60;;;6.50;;
61435;SDS011;47304;47.456;19.160;2023-06-14T05:42:54;14.10;;;7.00;;
61435;SDS011;47304;47.456;19.160;2023-06-14T05:45:20;14.30;;;7.30;;
61435;SDS011;47304;47.456;19.160;2023-06-14T05:47:47;13.20;;;6.70;;
61435;SDS011;47304;47.456;19.160;2023-06-14T05:50:13;12.40;;;6.20;;
61435;SDS011;47304;47.456;19.160;2023-06-14T05:52:40;12.20;;;6.20;;
61435;SDS011;47304;47.456;19.160;2023-06-14T05:55:07;13.30;;;6.60;;
61435;SDS011;47304;47.456;19.160;2023-06-14T05:57:33;12.40;;;6.60;;
61435;SDS011;47304;47.456;19.160;2023-06-14T06:00:00;11.50;;;6.20;;
61435;SDS011;47304;47.456;19.160;2023-06-14T06:02:27;11.30;;;6.50;;
61435;SDS011;47304;47.456;19.160;2023-06-14T06:04:53;14.30;;;6.30;;
61435;SDS011;47304;47.456;19.160;2023-06-14T06:07:20;12.00;;;6.10;;
61435;SDS011;47304;47.456;19.160;2023-06-14T06:09:46;13.30;;;6.60;;
61435;SDS011;47304;47.456;19.160;2023-06-14T06:12:13;10.50;;;5.80;;
61435;SDS011;47304;47.456;19.160;2023-06-14T06:14:40;13.70;;;6.20;;
61435;SDS011;47304;47.456;19.160;2023-06-14T06:17:06;11.10;;;6.00;;
61435;SDS011;47304;47.456;19.160;2023-06-14T06:19:33;12.00;;;6.60;;
61435;SDS011;47304;47.456;19.160;2023-06-14T06:21:59;10.40;;;5.60;;
61435;SDS011;47304;47.456;19.160;2023-06-14T06:24:26;14.30;;;6.70;;
61435;SDS011;47304;47.456;19.160;2023-06-14T06:26:53;11.40;;;5.20;;
61435;SDS011;47304;47.456;19.160;2023-06-14T06:29:19;10.50;;;5.30;;
61435;SDS011;47304;47.456;19.160;2023-06-14T06:31:46;11.00;;;5.30;;
61435;SDS011;47304;47.456;19.160;2023-06-14T06:34:12;10.90;;;5.40;;
61435;SDS011;47304;47.456;19.160;2023-06-14T06:36:39;11.60;;;5.70;;
61435;SDS011;47304;47.456;19.160;2023-06-14T06:39:05;11.40;;;5.70;;
61435;SDS011;47304;47.456;19.160;2023-06-14T06:41:32;11.40;;;5.10;;
61435;SDS011;47304;47.456;19.160;2023-06-14T06:43:59;10.60;;;5.20;;
61435;SDS011;47304;47.456;19.160;2023-06-14T06:46:25;10.60;;;5.10;;
61435;SDS011;47304;47.456;19.160;2023-06-14T06:48:52;10.00;;;5.10;;
61435;SDS011;47304;47.456;19.160;2023-06-14T06:51:18;10.70;;;5.20;;
61435;SDS011;47304;47.456;19.160;2023-06-14T06:53:48;12.30;;;4.90;;
61435;SDS011;47304;47.456;19.160;2023-06-14T06:56:19;10.10;;;5.30;;
61435;SDS011;47304;47.456;19.160;2023-06-14T06:58:46;9.60;;;5.00;;
61435;SDS011;47304;47.456;19.160;2023-06-14T07:01:13;10.70;;;4.70;;
61435;SDS011;47304;47.456;19.160;2023-06-14T07:03:39;10.40;;;4.70;;
61435;SDS011;47304;47.456;19.160;2023-06-14T07:06:06;10.10;;;5.20;;
61435;SDS011;47304;47.456;19.160;2023-06-14T07:08:33;8.60;;;4.50;;
61435;SDS011;47304;47.456;19.160;2023-06-14T07:10:59;11.20;;;4.90;;
61435;SDS011;47304;47.456;19.160;2023-06-14T07:13:26;11.30;;;5.10;;
61435;SDS011;47304;47.456;19.160;2023-06-14T07:15:57;9.00;;;4.70;;
61435;SDS011;47304;47.456;19.160;2023-06-14T07:18:25;10.30;;;5.20;;
61435;SDS011;47304;47.456;19.160;2023-06-14T07:20:51;11.60;;;5.30;;
61435;SDS011;47304;47.456;19.160;2023-06-14T07:23:18;10.60;;;5.60;;
61435;SDS011;47304;47.456;19.160;2023-06-14T07:25:45;10.10;;;5.40;;
61435;SDS011;47304;47.456;19.160;2023-06-14T07:28:11;9.00;;;4.90;;
61435;SDS011;47304;47.456;19.160;2023-06-14T07:30:38;10.10;;;5.60;;
61435;SDS011;47304;47.456;19.160;2023-06-14T07:33:04;10.50;;;4.90;;
61435;SDS011;47304;47.456;19.160;2023-06-14T07:35:31;11.20;;;5.10;;
61435;SDS011;47304;47.456;19.160;2023-06-14T07:37:58;10.10;;;5.00;;
61435;SDS011;47304;47.456;19.160;2023-06-14T07:40:24;9.40;;;5.40;;
61435;SDS011;47304;47.456;19.160;2023-06-14T07:42:51;9.50;;;4.80;;
61435;SDS011;47304;47.456;19.160;2023-06-14T07:45:18;12.30;;;5.90;;
61435;SDS011;47304;47.456;19.160;2023-06-14T07:47:44;11.00;;;4.80;;
61435;SDS011;47304;47.456;19.160;2023-06-14T07:50:11;8.80;;;4.10;;
61435;SDS011;47304;47.456;19.160;2023-06-14T07:52:38;10.00;;;5.10;;
61435;SDS011;47304;47.456;19.160;2023-06-14T07:55:07;10.90;;;4.60;;
61435;SDS011;47304;47.456;19.160;2023-06-14T07:57:33;10.60;;;4.60;;
61435;SDS011;47304;47.456;19.160;2023-06-14T08:00:00;10.50;;;5.10;;
61435;SDS011;47304;47.456;19.160;2023-06-14T08:02:27;10.60;;;5.30;;
61435;SDS011;47304;47.456;19.160;2023-06-14T08:04:54;11.10;;;4.60;;
61435;SDS011;47304;47.456;19.160;2023-06-14T08:07:20;11.00;;;5.30;;
61435;SDS011;47304;47.456;19.160;2023-06-14T08:09:47;8.50;;;4.70;;
61435;SDS011;47304;47.456;19.160;2023-06-14T08:12:13;11.10;;;4.60;;
61435;SDS011;47304;47.456;19.160;2023-06-14T08:14:41;9.30;;;5.00;;
61435;SDS011;47304;47.456;19.160;2023-06-14T08:17:08;10.70;;;4.40;;
61435;SDS011;47304;47.456;19.160;2023-06-14T08:19:35;10.10;;;4.50;;
61435;SDS011;47304;47.456;19.160;2023-06-14T08:22:01;9.60;;;4.60;;
61435;SDS011;47304;47.456;19.160;2023-06-14T08:24:28;9.60;;;4.80;;
61435;SDS011;47304;47.456;19.160;2023-06-14T08:26:55;9.40;;;5.00;;
61435;SDS011;47304;47.456;19.160;2023-06-14T08:29:22;9.90;;;4.90;;
61435;SDS011;47304;47.456;19.160;2023-06-14T08:31:48;9.70;;;4.80;;
61435;SDS011;47304;47.456;19.160;2023-06-14T08:34:15;9.50;;;4.40;;
61435;SDS011;47304;47.456;19.160;2023-06-14T08:36:41;8.70;;;4.40;;
61435;SDS011;47304;47.456;19.160;2023-06-14T08:39:08;12.00;;;4.80;;
61435;SDS011;47304;47.456;19.160;2023-06-14T08:41:35;9.90;;;5.20;;
61435;SDS011;47304;47.456;19.160;2023-06-14T08:44:02;10.30;;;5.00;;
61435;SDS011;47304;47.456;19.160;2023-06-14T08:46:28;10.00;;;4.80;;
61435;SDS011;47304;47.456;19.160;2023-06-14T08:48:59;10.80;;;4.10;;
61435;SDS011;47304;47.456;19.160;2023-06-14T08:51:28;11.00;;;4.90;;
61435;SDS011;47304;47.456;19.160;2023-06-14T08:53:57;9.10;;;4.70;;
61435;SDS011;47304;47.456;19.160;2023-06-14T08:56:30;10.00;;;5.30;;
61435;SDS011;47304;47.456;19.160;2023-06-14T08:58:57;9.20;;;4.70;;
61435;SDS011;47304;47.456;19.160;2023-06-14T09:01:24;9.00;;;5.50;;
61435;SDS011;47304;47.456;19.160;2023-06-14T09:03:51;9.90;;;4.80;;
61435;SDS011;47304;47.456;19.160;2023-06-14T09:06:18;8.30;;;4.90;;
61435;SDS011;47304;47.456;19.160;2023-06-14T09:08:46;9.90;;;4.40;;
61435;SDS011;47304;47.456;19.160;2023-06-14T09:11:13;12.80;;;4.60;;
61435;SDS011;47304;47.456;19.160;2023-06-14T09:13:41;10.00;;;4.60;;
61435;SDS011;47304;47.456;19.160;2023-06-14T09:16:08;10.30;;;5.10;;
61435;SDS011;47304;47.456;19.160;2023-06-14T09:18:36;8.50;;;3.90;;
61435;SDS011;47304;47.456;19.160;2023-06-14T09:21:03;23.00;;;11.50;;
61435;SDS011;47304;47.456;19.160;2023-06-14T09:23:38;10.00;;;5.00;;
61435;SDS011;47304;47.456;19.160;2023-06-14T09:26:07;9.10;;;4.50;;
61435;SDS011;47304;47.456;19.160;2023-06-14T09:28:43;11.40;;;4.30;;
61435;SDS011;47304;47.456;19.160;2023-06-14T09:31:10;8.10;;;3.80;;
61435;SDS011;47304;47.456;19.160;2023-06-14T09:33:38;13.20;;;4.20;;
61435;SDS011;47304;47.456;19.160;2023-06-14T09:36:10;8.70;;;3.50;;
61435;SDS011;47304;47.456;19.160;2023-06-14T09:38:39;10.40;;;3.80;;
61435;SDS011;47304;47.456;19.160;2023-06-14T09:41:07;9.30;;;3.70;;
61435;SDS011;47304;47.456;19.160;2023-06-14T09:43:33;9.20;;;3.40;;
61435;SDS011;47304;47.456;19.160;2023-06-14T09:46:03;9.50;;;3.40;;
61435;SDS011;47304;47.456;19.160;2023-06-14T09:48:31;8.10;;;3.80;;
61435;SDS011;47304;47.456;19.160;2023-06-14T09:50:57;9.90;;;3.90;;
61435;SDS011;47304;47.456;19.160;2023-06-14T09:53:24;9.80;;;3.80;;
61435;SDS011;47304;47.456;19.160;2023-06-14T09:55:52;9.20;;;4.30;;
61435;SDS011;47304;47.456;19.160;2023-06-14T09:58:20;9.40;;;3.80;;
61435;SDS011;47304;47.456;19.160;2023-06-14T10:00:50;7.50;;;3.60;;
61435;SDS011;47304;47.456;19.160;2023-06-14T10:03:20;8.40;;;3.70;;
61435;SDS011;47304;47.456;19.160;2023-06-14T10:05:51;7.40;;;3.00;;
61435;SDS011;47304;47.456;19.160;2023-06-14T10:08:19;8.80;;;3.60;;
61435;SDS011;47304;47.456;19.160;2023-06-14T10:10:50;8.30;;;3.60;;
61435;SDS011;47304;47.456;19.160;2023-06-14T10:13:16;8.50;;;3.00;;
61435;SDS011;47304;47.456;19.160;2023-06-14T10:18:41;7.50;;;3.60;;
61435;SDS011;47304;47.456;19.160;2023-06-14T10:24:40;7.30;;;3.20;;
61435;SDS011;47304;47.456;19.160;2023-06-14T10:27:13;9.10;;;3.50;;
61435;SDS011;47304;47.456;19.160;2023-06-14T10:32:20;6.80;;;2.80;;
61435;SDS011;47304;47.456;19.160;2023-06-14T10:34:53;7.40;;;3.20;;
61435;SDS011;47304;47.456;19.160;2023-06-14T10:37:21;7.30;;;3.10;;
61435;SDS011;47304;47.456;19.160;2023-06-14T10:39:48;7.00;;;3.30;;
61435;SDS011;47304;47.456;19.160;2023-06-14T10:42:16;7.20;;;3.30;;
61435;SDS011;47304;47.456;19.160;2023-06-14T10:47:23;8.40;;;2.90;;
61435;SDS011;47304;47.456;19.160;2023-06-14T10:49:57;7.10;;;3.00;;
61435;SDS011;47304;47.456;19.160;2023-06-14T10:52:31;7.00;;;2.80;;
61435;SDS011;47304;47.456;19.160;2023-06-14T10:55:07;6.10;;;2.80;;
61435;SDS011;47304;47.456;19.160;2023-06-14T10:57:47;6.50;;;2.70;;
61435;SDS011;47304;47.456;19.160;2023-06-14T11:00:19;5.50;;;2.40;;
61435;SDS011;47304;47.456;19.160;2023-06-14T11:05:56;7.20;;;3.10;;
61435;SDS011;47304;47.456;19.160;2023-06-14T11:11:00;8.20;;;2.90;;
61435;SDS011;47304;47.456;19.160;2023-06-14T11:13:36;7.90;;;3.10;;
61435;SDS011;47304;47.456;19.160;2023-06-14T11:16:12;10.20;;;4.70;;
61435;SDS011;47304;47.456;19.160;2023-06-14T11:18:40;8.40;;;3.00;;
61435;SDS011;47304;47.456;19.160;2023-06-14T11:21:07;6.20;;;2.70;;
61435;SDS011;47304;47.456;19.160;2023-06-14T11:23:34;9.30;;;4.90;;
61435;SDS011;47304;47.456;19.160;2023-06-14T11:26:01;7.50;;;3.70;;
61435;SDS011;47304;47.456;19.160;2023-06-14T11:28:35;7.10;;;3.00;;
61435;SDS011;47304;47.456;19.160;2023-06-14T11:31:04;6.70;;;3.40;;
61435;SDS011;47304;47.456;19.160;2023-06-14T11:33:31;9.10;;;3.80;;
61435;SDS011;47304;47.456;19.160;2023-06-14T11:35:58;6.90;;;3.00;;
61435;SDS011;47304;47.456;19.160;2023-06-14T11:38:27;6.30;;;2.80;;
61435;SDS011;47304;47.456;19.160;2023-06-14T11:40:58;6.50;;;2.80;;
61435;SDS011;47304;47.456;19.160;2023-06-14T11:43:25;9.10;;;3.60;;
61435;SDS011;47304;47.456;19.160;2023-06-14T11:45:52;10.10;;;3.50;;
61435;SDS011;47304;47.456;19.160;2023-06-14T11:48:37;7.00;;;3.40;;
61435;SDS011;47304;47.456;19.160;2023-06-14T11:51:07;8.20;;;3.10;;
61435;SDS011;47304;47.456;19.160;2023-06-14T11:53:34;7.20;;;3.30;;
61435;SDS011;47304;47.456;19.160;2023-06-14T11:56:01;8.50;;;3.30;;
61435;SDS011;47304;47.456;19.160;2023-06-14T11:58:29;7.30;;;3.20;;
61435;SDS011;47304;47.456;19.160;2023-06-14T12:00:55;7.60;;;3.50;;
61435;SDS011;47304;47.456;19.160;2023-06-14T12:03:23;6.70;;;3.20;;
61435;SDS011;47304;47.456;19.160;2023-06-14T12:05:50;9.00;;;3.80;;
61435;SDS011;47304;47.456;19.160;2023-06-14T12:08:16;8.30;;;3.20;;
61435;SDS011;47304;47.456;19.160;2023-06-14T12:10:44;7.00;;;3.40;;
61435;SDS011;47304;47.456;19.160;2023-06-14T12:13:11;6.50;;;2.90;;
61435;SDS011;47304;47.456;19.160;2023-06-14T12:15:38;8.80;;;3.30;;
61435;SDS011;47304;47.456;19.160;2023-06-14T12:18:07;7.00;;;3.80;;
61435;SDS011;47304;47.456;19.160;2023-06-14T12:20:34;10.40;;;3.60;;
61435;SDS011;47304;47.456;19.160;2023-06-14T12:23:02;7.40;;;3.30;;
61435;SDS011;47304;47.456;19.160;2023-06-14T12:25:31;7.50;;;3.30;;
61435;SDS011;47304;47.456;19.160;2023-06-14T12:27:59;7.20;;;3.40;;
61435;SDS011;47304;47.456;19.160;2023-06-14T12:30:30;7.40;;;3.60;;
61435;SDS011;47304;47.456;19.160;2023-06-14T12:32:57;6.80;;;3.30;;
61435;SDS011;47304;47.456;19.160;2023-06-14T12:35:24;7.20;;;3.50;;
61435;SDS011;47304;47.456;19.160;2023-06-14T12:37:51;6.90;;;3.40;;
61435;SDS011;47304;47.456;19.160;2023-06-14T12:40:21;6.90;;;3.30;;
61435;SDS011;47304;47.456;19.160;2023-06-14T12:42:47;10.20;;;3.40;;
61435;SDS011;47304;47.456;19.160;2023-06-14T12:45:14;7.80;;;3.40;;
61435;SDS011;47304;47.456;19.160;2023-06-14T12:47:41;6.60;;;3.20;;
61435;SDS011;47304;47.456;19.160;2023-06-14T12:50:08;8.80;;;3.60;;
61435;SDS011;47304;47.456;19.160;2023-06-14T12:52:34;8.40;;;3.50;;
61435;SDS011;47304;47.456;19.160;2023-06-14T12:55:04;10.70;;;3.70;;
61435;SDS011;47304;47.456;19.160;2023-06-14T12:57:31;7.10;;;3.40;;
61435;SDS011;47304;47.456;19.160;2023-06-14T12:59:59;7.60;;;3.20;;
61435;SDS011;47304;47.456;19.160;2023-06-14T13:02:27;7.90;;;3.40;;
61435;SDS011;47304;47.456;19.160;2023-06-14T13:04:54;8.80;;;3.60;;
61435;SDS011;47304;47.456;19.160;2023-06-14T13:07:21;7.70;;;3.80;;
61435;SDS011;47304;47.456;19.160;2023-06-14T13:09:48;6.90;;;3.10;;
61435;SDS011;47304;47.456;19.160;2023-06-14T13:12:14;8.70;;;3.60;;
61435;SDS011;47304;47.456;19.160;2023-06-14T13:14:41;7.90;;;3.50;;
61435;SDS011;47304;47.456;19.160;2023-06-14T13:17:08;7.60;;;3.80;;
61435;SDS011;47304;47.456;19.160;2023-06-14T13:19:35;7.10;;;3.20;;
61435;SDS011;47304;47.456;19.160;2023-06-14T13:22:02;10.10;;;3.70;;
61435;SDS011;47304;47.456;19.160;2023-06-14T13:24:29;6.30;;;3.20;;
61435;SDS011;47304;47.456;19.160;2023-06-14T13:26:56;8.30;;;3.30;;
61435;SDS011;47304;47.456;19.160;2023-06-14T13:29:24;8.70;;;3.60;;
61435;SDS011;47304;47.456;19.160;2023-06-14T13:31:50;6.70;;;3.20;;
61435;SDS011;47304;47.456;19.160;2023-06-14T13:34:17;7.40;;;3.40;;
61435;SDS011;47304;47.456;19.160;2023-06-14T13:36:44;7.40;;;2.90;;
61435;SDS011;47304;47.456;19.160;2023-06-14T13:39:11;8.20;;;3.20;;
61435;SDS011;47304;47.456;19.160;2023-06-14T13:41:38;7.10;;;3.50;;
61435;SDS011;47304;47.456;19.160;2023-06-14T13:44:04;9.50;;;3.70;;
61435;SDS011;47304;47.456;19.160;2023-06-14T13:46:31;6.70;;;3.20;;
61435;SDS011;47304;47.456;19.160;2023-06-14T13:48:58;9.70;;;3.50;;
61435;SDS011;47304;47.456;19.160;2023-06-14T13:51:24;8.40;;;3.50;;
61435;SDS011;47304;47.456;19.160;2023-06-14T13:53:51;7.80;;;3.50;;
61435;SDS011;47304;47.456;19.160;2023-06-14T13:56:19;9.10;;;3.70;;
61435;SDS011;47304;47.456;19.160;2023-06-14T13:58:46;7.40;;;3.40;;
61435;SDS011;47304;47.456;19.160;2023-06-14T14:01:12;8.70;;;3.70;;
61435;SDS011;47304;47.456;19.160;2023-06-14T14:03:39;7.30;;;3.50;;
61435;SDS011;47304;47.456;19.160;2023-06-14T14:06:07;8.60;;;3.50;;
61435;SDS011;47304;47.456;19.160;2023-06-14T14:08:36;6.80;;;3.40;;
61435;SDS011;47304;47.456;19.160;2023-06-14T14:11:03;12.30;;;3.30;;
61435;SDS011;47304;47.456;19.160;2023-06-14T14:13:30;7.50;;;3.50;;
61435;SDS011;47304;47.456;19.160;2023-06-14T14:15:56;7.10;;;3.30;;
61435;SDS011;47304;47.456;19.160;2023-06-14T14:18:23;7.60;;;3.30;;
61435;SDS011;47304;47.456;19.160;2023-06-14T14:20:50;8.80;;;3.70;;
61435;SDS011;47304;47.456;19.160;2023-06-14T14:23:16;8.10;;;3.00;;
61435;SDS011;47304;47.456;19.160;2023-06-14T14:25:43;8.00;;;3.30;;
61435;SDS011;47304;47.456;19.160;2023-06-14T14:28:10;9.40;;;3.90;;
61435;SDS011;47304;47.456;19.160;2023-06-14T14:30:37;7.00;;;3.40;;
61435;SDS011;47304;47.456;19.160;2023-06-14T14:33:03;10.10;;;3.50;;
61435;SDS011;47304;47.456;19.160;2023-06-14T14:35:30;6.70;;;3.20;;
61435;SDS011;47304;47.456;19.160;2023-06-14T14:37:57;8.20;;;3.50;;
61435;SDS011;47304;47.456;19.160;2023-06-14T14:40:24;7.30;;;3.30;;
61435;SDS011;47304;47.456;19.160;2023-06-14T14:42:50;8.20;;;3.60;;
61435;SDS011;47304;47.456;19.160;2023-06-14T14:45:17;7.90;;;3.40;;
61435;SDS011;47304;47.456;19.160;2023-06-14T14:47:43;8.50;;;3.60;;
61435;SDS011;47304;47.456;19.160;2023-06-14T14:50:10;9.20;;;3.20;;
61435;SDS011;47304;47.456;19.160;2023-06-14T14:52:37;7.70;;;3.20;;